Time;durP1;ratioP1;P1;durP2;ratioP2;P2;SDS_P1;SDS_P2;PMS_P1;PMS_P2;Temp;Humidity;BMP_temperature;BMP_pressure;BME280_temperature;BME280_humidity;BME280_pressure;Samples;Min_cycle;Max_cycle;Signal;HPM_P1;HPM_P2
2021/06/16 00:01:49;;;;;;;1999.90;999.90;;;20.40;99.90;;;;;;5056126;28;20517;-76
2021/06/16 00:04:14;;;;;;;1999.90;999.90;;;20.30;99.90;;;;;;5055735;28;20537;-76
2021/06/16 00:06:40;;;;;;;1999.90;999.90;;;20.20;99.90;;;;;;5071786;28;20188;-76
2021/06/16 00:09:06;;;;;;;1999.90;999.90;;;20.10;99.90;;;;;;5075785;28;20205;-77
2021/06/16 00:11:33;;;;;;;1999.90;999.90;;;20.00;99.90;;;;;;5083912;22;20240;-77
2021/06/16 00:13:59;;;;;;;1999.90;999.90;;;20.00;99.90;;;;;;5055061;28;20213;-77
2021/06/16 00:16:26;;;;;;;1999.90;999.90;;;19.90;99.90;;;;;;5054627;28;20266;-77
2021/06/16 00:18:52;;;;;;;1999.90;999.90;;;19.90;99.90;;;;;;5055216;28;20189;-77
2021/06/16 00:21:19;;;;;;;1999.90;999.90;;;19.90;99.90;;;;;;5043316;28;20314;-77
2021/06/16 00:23:45;;;;;;;1999.90;999.90;;;19.90;99.90;;;;;;5035159;28;20868;-77
2021/06/16 00:26:11;;;;;;;1999.90;999.90;;;19.90;99.90;;;;;;5034979;28;20178;-77
2021/06/16 00:28:36;;;;;;;1999.90;999.90;;;20.00;99.90;;;;;;5034936;28;20175;-76
2021/06/16 00:31:03;;;;;;;1999.90;999.90;;;20.00;99.90;;;;;;5034684;28;20681;-76
2021/06/16 00:33:28;;;;;;;1999.90;999.90;;;20.10;99.90;;;;;;5034839;28;20186;-77
2021/06/16 00:35:54;;;;;;;1999.90;999.90;;;20.00;99.90;;;;;;5034436;28;20254;-77
2021/06/16 00:38:20;;;;;;;1999.90;999.90;;;19.80;99.90;;;;;;5034685;28;20197;-76
2021/06/16 00:40:46;;;;;;;1999.90;999.90;;;19.80;99.90;;;;;;5033211;28;20669;-77
2021/06/16 00:43:11;;;;;;;1999.90;999.90;;;19.80;99.90;;;;;;5034767;28;20218;-77
2021/06/16 00:45:37;;;;;;;1999.90;999.90;;;19.70;99.90;;;;;;5034461;28;20254;-77
2021/06/16 00:48:03;;;;;;;1999.90;999.90;;;19.80;99.90;;;;;;5034312;28;20174;-77
2021/06/16 00:50:33;;;;;;;1999.90;999.90;;;19.70;99.90;;;;;;5033989;28;20207;-77
2021/06/16 00:52:59;;;;;;;1999.90;999.90;;;19.70;99.90;;;;;;5033982;28;20197;-77
2021/06/16 00:55:25;;;;;;;1999.90;999.90;;;19.80;99.90;;;;;;5034391;28;20670;-78
2021/06/16 00:57:51;;;;;;;1999.90;999.90;;;19.80;99.90;;;;;;5034399;28;20202;-77
2021/06/16 01:00:23;;;;;;;1999.90;999.90;;;19.80;99.90;;;;;;5033026;28;20194;-77
2021/06/16 01:03:27;;;;;;;1999.90;999.90;;;19.70;99.90;;;;;;5034175;28;20179;-77
2021/06/16 01:06:06;;;;;;;1999.90;999.90;;;19.60;99.90;;;;;;5034362;28;20598;-77
2021/06/16 01:08:39;;;;;;;1999.90;999.90;;;19.60;99.90;;;;;;5033934;28;20166;-77
2021/06/16 01:11:09;;;;;;;1999.90;999.90;;;19.60;99.90;;;;;;5032967;28;20218;-77
2021/06/16 01:13:44;;;;;;;1999.90;999.90;;;19.60;99.90;;;;;;5032734;28;20582;-77
2021/06/16 01:16:21;;;;;;;1999.90;999.90;;;19.40;99.90;;;;;;5034093;28;20185;-77
2021/06/16 01:18:51;;;;;;;1999.90;999.90;;;19.50;99.90;;;;;;5023901;28;20198;-76
2021/06/16 01:21:18;;;;;;;1999.90;999.90;;;19.40;99.90;;;;;;5032972;28;20574;-77
2021/06/16 01:24:04;;;;;;;1999.90;999.90;;;19.30;99.90;;;;;;5033791;28;20186;-77
2021/06/16 01:26:36;;;;;;;1999.90;999.90;;;19.20;99.90;;;;;;5033512;28;20170;-77
2021/06/16 01:29:13;;;;;;;1999.90;999.90;;;19.20;99.90;;;;;;5033703;28;20221;-77
2021/06/16 01:31:40;;;;;;;1999.90;999.90;;;19.10;99.90;;;;;;5033598;28;20198;-76
2021/06/16 01:34:09;;;;;;;1999.90;999.90;;;19.10;99.90;;;;;;5033633;28;20184;-76
2021/06/16 01:36:37;;;;;;;1999.90;999.90;;;19.10;99.90;;;;;;5032322;28;20182;-77
2021/06/16 01:39:08;;;;;;;1999.90;999.90;;;19.00;99.90;;;;;;5032746;28;20309;-77
2021/06/16 01:41:34;;;;;;;1999.90;999.90;;;19.00;99.90;;;;;;5033495;28;20653;-77
2021/06/16 01:44:01;;;;;;;1999.90;999.90;;;19.10;99.90;;;;;;5033242;28;20179;-77
2021/06/16 01:46:28;;;;;;;1999.90;999.90;;;19.10;99.90;;;;;;5030630;28;20171;-77
2021/06/16 01:48:54;;;;;;;1999.90;999.90;;;19.00;99.90;;;;;;5016637;28;20180;-77
2021/06/16 01:51:21;;;;;;;1999.90;999.90;;;19.00;99.90;;;;;;5017497;28;20331;-77
2021/06/16 01:53:49;;;;;;;1999.90;999.90;;;19.00;99.90;;;;;;5028932;28;20201;-77
2021/06/16 01:56:17;;;;;;;1999.90;999.90;;;18.90;99.90;;;;;;5014483;28;20182;-77
2021/06/16 01:58:43;;;;;;;1999.90;999.90;;;18.80;99.90;;;;;;5012655;28;20215;-77
2021/06/16 02:01:10;;;;;;;1999.90;999.90;;;18.70;99.90;;;;;;5026278;28;20198;-77
2021/06/16 02:03:36;;;;;;;1999.90;999.90;;;18.60;99.90;;;;;;5011506;28;20180;-77
2021/06/16 02:06:02;;;;;;;1999.90;999.90;;;18.60;99.90;;;;;;5012413;28;20234;-76
2021/06/16 02:08:31;;;;;;;1999.90;999.90;;;18.70;99.90;;;;;;5013323;28;20225;-77
2021/06/16 02:10:59;;;;;;;1999.90;999.90;;;18.70;99.90;;;;;;5012211;28;20230;-77
2021/06/16 02:13:34;;;;;;;1999.90;999.90;;;18.70;99.90;;;;;;5012698;28;20554;-77
2021/06/16 02:16:07;;;;;;;1999.90;999.90;;;18.70;99.90;;;;;;5011474;28;20182;-77
2021/06/16 02:18:50;;;;;;;1999.90;999.90;;;18.70;99.90;;;;;;5012919;28;20244;-77
2021/06/16 02:21:15;;;;;;;1999.90;999.90;;;18.70;99.90;;;;;;5011604;28;20834;-77
2021/06/16 02:23:43;;;;;;;1999.90;999.90;;;18.70;99.90;;;;;;5015021;28;20174;-77
2021/06/16 02:26:13;;;;;;;1999.90;999.90;;;18.60;99.90;;;;;;5012856;28;20175;-77
2021/06/16 02:28:41;;;;;;;1999.90;999.90;;;18.50;99.90;;;;;;5014757;28;20545;-77
2021/06/16 02:31:06;;;;;;;1999.90;999.90;;;18.50;99.90;;;;;;5010933;28;20195;-77
2021/06/16 02:33:32;;;;;;;1999.90;999.90;;;18.50;99.90;;;;;;5013683;28;20552;-77
2021/06/16 02:35:59;;;;;;;1999.90;999.90;;;18.50;99.90;;;;;;5014108;28;20638;-77
2021/06/16 02:38:29;;;;;;;1999.90;999.90;;;18.40;99.90;;;;;;5016071;28;20198;-76
2021/06/16 02:40:56;;;;;;;1999.90;999.90;;;18.30;99.90;;;;;;5025024;28;20202;-77
2021/06/16 02:43:22;;;;;;;1999.90;999.90;;;18.20;99.90;;;;;;5014729;28;20174;-76
2021/06/16 02:45:49;;;;;;;1999.90;999.90;;;18.10;99.90;;;;;;5016785;28;20170;-77
2021/06/16 02:48:17;;;;;;;1999.90;999.90;;;18.20;99.90;;;;;;5010797;28;20175;-77
2021/06/16 02:50:46;;;;;;;1999.90;999.90;;;18.20;99.90;;;;;;5013887;28;20233;-77
2021/06/16 02:53:21;;;;;;;1999.90;999.90;;;18.20;99.90;;;;;;5023212;28;20179;-77
2021/06/16 02:55:49;;;;;;;1999.90;999.90;;;18.30;99.90;;;;;;5030940;28;20699;-77
2021/06/16 02:58:16;;;;;;;1999.90;999.90;;;18.30;99.90;;;;;;5027714;28;20218;-77
2021/06/16 03:00:45;;;;;;;1999.90;999.90;;;18.10;99.90;;;;;;5029396;28;20202;-77
2021/06/16 03:03:11;;;;;;;1999.90;999.90;;;18.00;99.90;;;;;;5029689;28;20649;-77
2021/06/16 03:05:38;;;;;;;1999.90;999.90;;;18.00;99.90;;;;;;5030219;28;20607;-77
2021/06/16 03:08:05;;;;;;;1999.90;999.90;;;18.00;99.90;;;;;;5031121;28;20779;-77
2021/06/16 03:10:33;;;;;;;1999.90;999.90;;;18.10;99.90;;;;;;5032312;28;20272;-78
2021/06/16 03:13:03;;;;;;;1999.90;999.90;;;18.00;99.90;;;;;;5033846;28;20189;-77
2021/06/16 03:15:30;;;;;;;1999.90;999.90;;;18.00;99.90;;;;;;5034400;28;20194;-79
2021/06/16 03:17:57;;;;;;;1999.90;999.90;;;18.00;99.90;;;;;;5034547;28;20593;-76
2021/06/16 03:20:25;;;;;;;1999.90;999.90;;;18.00;99.90;;;;;;5034611;28;20190;-77
2021/06/16 03:22:54;;;;;;;1999.90;999.90;;;17.90;99.90;;;;;;5034666;28;20178;-76
2021/06/16 03:25:19;;;;;;;1999.90;999.90;;;17.80;99.90;;;;;;5034212;28;20550;-77
2021/06/16 03:27:49;;;;;;;1999.90;999.90;;;17.80;99.90;;;;;;5025640;28;20181;-77
2021/06/16 03:30:16;;;;;;;1999.90;999.90;;;17.70;99.90;;;;;;5034435;28;20251;-78
2021/06/16 03:32:43;;;;;;;1999.90;999.90;;;17.70;99.90;;;;;;5035004;28;20178;-78
2021/06/16 03:35:10;;;;;;;1999.90;999.90;;;17.80;99.90;;;;;;5033782;28;20190;-76
2021/06/16 03:37:37;;;;;;;1999.90;999.90;;;17.80;99.90;;;;;;5035676;28;20206;-77
2021/06/16 03:40:06;;;;;;;1999.90;999.90;;;17.80;99.90;;;;;;5033679;28;20550;-79
2021/06/16 03:42:36;;;;;;;1999.90;999.90;;;17.90;99.90;;;;;;5031167;28;20257;-77
2021/06/16 03:45:05;;;;;;;1999.90;999.90;;;17.90;99.90;;;;;;5024875;28;20638;-75
2021/06/16 03:47:32;;;;;;;1999.90;999.90;;;17.90;99.90;;;;;;5034877;28;20663;-77
2021/06/16 03:49:59;;;;;;;1999.90;999.90;;;17.70;99.90;;;;;;5036617;28;20280;-77
2021/06/16 03:52:26;;;;;;;1999.90;999.90;;;17.60;99.90;;;;;;5035170;28;20261;-77
2021/06/16 03:54:53;;;;;;;1999.90;999.90;;;17.60;99.90;;;;;;5035824;28;20181;-77
2021/06/16 03:57:20;;;;;;;1999.90;999.90;;;17.60;99.90;;;;;;5034352;28;20571;-77
2021/06/16 03:59:47;;;;;;;1999.90;999.90;;;17.60;99.90;;;;;;5036199;28;20187;-78
2021/06/16 04:02:18;;;;;;;1999.90;999.90;;;17.50;99.90;;;;;;5025649;28;20222;-78
2021/06/16 04:04:45;;;;;;;1999.90;999.90;;;17.50;99.90;;;;;;5050962;28;20539;-76
2021/06/16 04:07:18;;;;;;;1999.90;999.90;;;17.50;99.90;;;;;;5035146;28;20206;-77
2021/06/16 04:09:52;;;;;;;1999.90;999.90;;;17.60;99.90;;;;;;5038740;28;20645;-74
2021/06/16 04:12:40;;;;;;;1999.90;999.90;;;17.70;99.90;;;;;;5032302;28;20218;-75
2021/06/16 04:15:06;;;;;;;1999.90;999.90;;;17.70;99.90;;;;;;5028377;28;20182;-77
2021/06/16 04:17:32;;;;;;;1999.90;999.90;;;17.80;99.90;;;;;;5033142;28;20268;-77
2021/06/16 04:19:57;;;;;;;1999.90;999.90;;;17.80;99.90;;;;;;5034832;28;20179;-77
2021/06/16 04:22:23;;;;;;;1999.90;999.90;;;17.90;99.90;;;;;;5032975;28;20181;-77
2021/06/16 04:24:49;;;;;;;1999.90;999.90;;;17.90;99.90;;;;;;5028294;28;20186;-77
2021/06/16 04:27:15;;;;;;;1999.90;999.90;;;17.80;99.90;;;;;;5025916;28;20530;-77
2021/06/16 04:29:41;;;;;;;1999.90;999.90;;;17.80;99.90;;;;;;5031580;28;20186;-77
2021/06/16 04:32:09;;;;;;;1999.90;999.90;;;17.80;99.90;;;;;;5033876;28;20201;-77
2021/06/16 04:34:35;;;;;;;1999.90;999.90;;;17.80;99.90;;;;;;5034658;28;20708;-81
2021/06/16 04:37:01;;;;;;;1999.90;999.90;;;17.80;99.90;;;;;;5033590;28;20202;-81
2021/06/16 04:39:27;;;;;;;1999.90;999.90;;;17.90;99.90;;;;;;5035156;28;20186;-81
2021/06/16 04:41:53;;;;;;;1999.90;999.90;;;18.00;99.90;;;;;;5036115;28;20194;-80
2021/06/16 04:44:18;;;;;;;1999.90;999.90;;;18.00;99.90;;;;;;5034798;28;20262;-80
2021/06/16 04:46:44;;;;;;;1999.90;999.90;;;18.10;99.90;;;;;;5035695;28;20202;-81
2021/06/16 04:49:09;;;;;;;1999.90;999.90;;;18.20;99.90;;;;;;5034671;28;20174;-80
2021/06/16 04:51:35;;;;;;;1999.90;999.90;;;18.30;99.90;;;;;;5034685;28;20191;-80
2021/06/16 04:54:01;;;;;;;1999.90;999.90;;;18.40;99.90;;;;;;5036350;28;20170;-80
2021/06/16 04:56:26;;;;;;;1999.90;999.90;;;18.50;99.90;;;;;;5035822;28;20663;-80
2021/06/16 04:58:52;;;;;;;1999.90;999.90;;;18.60;99.90;;;;;;5035013;28;20221;-80
2021/06/16 05:01:18;;;;;;;1999.90;999.90;;;18.70;99.90;;;;;;5034637;28;20220;-80
2021/06/16 05:03:43;;;;;;;1999.90;999.90;;;18.70;99.90;;;;;;5035595;28;20198;-80
2021/06/16 05:06:09;;;;;;;1999.90;999.90;;;18.80;99.90;;;;;;5034812;28;20175;-80
2021/06/16 05:08:34;;;;;;;1999.90;999.90;;;18.90;99.90;;;;;;5036000;28;20175;-80
2021/06/16 05:11:00;;;;;;;1999.90;999.90;;;19.00;99.90;;;;;;5035433;28;20221;-79
2021/06/16 05:13:26;;;;;;;1999.90;999.90;;;19.10;99.90;;;;;;5036035;28;20193;-81
2021/06/16 05:15:53;;;;;;;1999.90;999.90;;;19.10;99.90;;;;;;5042422;28;20181;-80
2021/06/16 05:18:19;;;;;;;1999.90;999.90;;;19.20;99.90;;;;;;5041418;28;20198;-80
2021/06/16 05:20:45;;;;;;;1999.90;999.90;;;19.30;99.90;;;;;;5035521;28;20182;-79
2021/06/16 05:23:11;;;;;;;1999.90;999.90;;;19.40;99.90;;;;;;5034354;28;20177;-80
2021/06/16 05:25:38;;;;;;;1999.90;999.90;;;19.40;99.90;;;;;;5035531;28;20173;-80
2021/06/16 05:28:04;;;;;;;1999.90;999.90;;;19.50;99.90;;;;;;5035470;28;20170;-80
2021/06/16 05:30:30;;;;;;;1999.90;999.90;;;19.60;99.90;;;;;;5034305;28;20194;-79
2021/06/16 05:32:55;;;;;;;1999.90;999.90;;;19.70;99.90;;;;;;5033896;28;20209;-79
2021/06/16 05:35:21;;;;;;;1999.90;999.90;;;19.80;99.90;;;;;;5029863;28;20177;-80
2021/06/16 05:37:47;;;;;;;1999.90;999.90;;;19.90;99.90;;;;;;5035033;28;20202;-80
2021/06/16 05:40:15;;;;;;;1999.90;999.90;;;19.90;99.90;;;;;;5035343;28;20228;-80
2021/06/16 05:42:41;;;;;;;1999.90;999.90;;;20.00;99.90;;;;;;5033948;28;20186;-81
2021/06/16 05:45:07;;;;;;;1999.90;999.90;;;20.20;99.90;;;;;;5034004;28;20174;-80
2021/06/16 05:47:33;;;;;;;1999.90;999.90;;;20.30;99.90;;;;;;5035204;28;20645;-79
2021/06/16 05:49:59;;;;;;;1999.90;999.90;;;20.40;99.90;;;;;;5034291;28;20185;-78
2021/06/16 05:52:25;;;;;;;1999.90;999.90;;;20.50;99.90;;;;;;5035429;28;20634;-80
2021/06/16 05:54:50;;;;;;;1999.90;999.90;;;20.60;99.90;;;;;;5033989;28;20186;-81
2021/06/16 05:57:16;;;;;;;1999.90;999.90;;;20.80;99.90;;;;;;5034119;28;20274;-79
2021/06/16 05:59:42;;;;;;;1999.90;999.90;;;20.80;99.90;;;;;;5033792;28;20261;-78
2021/06/16 06:02:08;;;;;;;1999.90;999.90;;;20.80;99.90;;;;;;5034970;28;20681;-80
2021/06/16 06:04:35;;;;;;;1999.90;999.90;;;20.90;99.90;;;;;;5034758;28;20175;-80
2021/06/16 06:07:02;;;;;;;1999.90;999.90;;;21.10;99.90;;;;;;5042922;28;20257;-80
2021/06/16 06:09:28;;;;;;;1999.90;999.90;;;21.20;99.90;;;;;;5040786;28;20170;-80
2021/06/16 06:11:54;;;;;;;1999.90;999.90;;;21.30;99.90;;;;;;5074399;23;20216;-85
2021/06/16 06:14:19;;;;;;;1999.90;999.90;;;21.30;99.90;;;;;;5097692;28;20172;-85
2021/06/16 06:16:45;;;;;;;1999.90;999.90;;;21.40;99.90;;;;;;5102179;28;20622;-85
2021/06/16 06:19:11;;;;;;;1999.90;999.90;;;21.50;99.90;;;;;;5088509;28;20169;-84
2021/06/16 06:21:36;;;;;;;1999.90;999.90;;;21.50;99.90;;;;;;5097804;28;20204;-82
2021/06/16 06:24:03;;;;;;;1999.90;999.90;;;21.60;99.90;;;;;;5082149;28;20192;-82
2021/06/16 06:26:29;;;;;;;1999.90;999.90;;;21.70;99.90;;;;;;5062683;28;20183;-83
2021/06/16 06:28:55;;;;;;;1999.90;999.90;;;21.80;99.90;;;;;;5074482;28;20236;-83
2021/06/16 06:31:21;;;;;;;1999.90;999.90;;;21.80;99.90;;;;;;5061684;28;20176;-84
2021/06/16 06:33:47;;;;;;;1999.90;999.90;;;21.80;99.90;;;;;;5080975;28;20497;-85
2021/06/16 06:36:12;;;;;;;1999.90;999.90;;;21.90;99.90;;;;;;5076394;28;20180;-85
2021/06/16 06:38:38;;;;;;;1999.90;999.90;;;21.80;99.90;;;;;;5056395;28;20216;-85
2021/06/16 06:41:04;;;;;;;1999.90;999.90;;;21.80;99.90;;;;;;5063795;28;20165;-85
2021/06/16 06:43:30;;;;;;;1999.90;999.90;;;21.80;99.90;;;;;;5063820;28;20239;-85
2021/06/16 06:45:56;;;;;;;1999.90;999.90;;;21.90;99.90;;;;;;5064112;28;20605;-85
2021/06/16 06:48:21;;;;;;;1999.90;999.90;;;22.00;99.90;;;;;;5081071;28;20193;-85
2021/06/16 06:50:47;;;;;;;1999.90;999.90;;;22.00;99.90;;;;;;5086511;28;20256;-85
2021/06/16 06:53:14;;;;;;;1999.90;999.90;;;22.10;99.90;;;;;;5085749;28;20199;-85
2021/06/16 06:55:42;;;;;;;1999.90;999.90;;;22.00;99.90;;;;;;5068279;28;20256;-85
2021/06/16 06:58:08;;;;;;;1999.90;999.90;;;21.80;99.90;;;;;;5085483;28;20200;-85
2021/06/16 07:00:33;;;;;;;1999.90;999.90;;;21.90;99.90;;;;;;5085647;28;20247;-85
2021/06/16 07:02:59;;;;;;;1999.90;999.90;;;22.00;99.90;;;;;;5086136;28;20249;-85
2021/06/16 07:05:25;;;;;;;1999.90;999.90;;;22.00;99.90;;;;;;5085534;28;20231;-85
2021/06/16 07:07:52;;;;;;;1999.90;999.90;;;22.20;99.90;;;;;;5085313;28;20666;-82
2021/06/16 07:10:17;;;;;;;1999.90;999.90;;;22.40;99.90;;;;;;5085181;28;20176;-82
2021/06/16 07:12:43;;;;;;;1999.90;999.90;;;22.50;99.90;;;;;;5066986;28;20213;-83
2021/06/16 07:15:09;;;;;;;1999.90;999.90;;;22.50;99.90;;;;;;5085300;28;20176;-82
2021/06/16 07:17:36;;;;;;;1999.90;999.90;;;22.50;99.90;;;;;;5066440;28;20185;-82
2021/06/16 07:20:03;;;;;;;1999.90;999.90;;;22.70;99.90;;;;;;5084286;28;20165;-85
2021/06/16 07:22:29;;;;;;;1999.90;999.90;;;22.80;99.90;;;;;;5066561;28;20204;-85
2021/06/16 07:24:55;;;;;;;1999.90;999.90;;;22.70;99.90;;;;;;5085203;28;20169;-85
2021/06/16 07:27:20;;;;;;;1999.90;999.90;;;22.70;99.90;;;;;;5066552;28;20169;-85
2021/06/16 07:29:46;;;;;;;1999.90;999.90;;;22.70;99.90;;;;;;5066710;28;20177;-86
2021/06/16 07:32:11;;;;;;;1999.90;999.90;;;22.90;99.90;;;;;;5066428;28;20201;-85
2021/06/16 07:34:37;;;;;;;1999.90;999.90;;;23.10;99.90;;;;;;5085167;28;20164;-85
2021/06/16 07:37:03;;;;;;;1999.90;999.90;;;23.20;99.90;;;;;;5085193;28;20214;-85
2021/06/16 07:39:29;;;;;;;1999.90;999.90;;;23.40;99.90;;;;;;5066734;28;20177;-85
2021/06/16 07:41:55;;;;;;;1999.90;999.90;;;23.50;99.90;;;;;;5066696;28;20283;-85
2021/06/16 07:44:20;;;;;;;1999.90;999.90;;;23.70;99.90;;;;;;5066676;28;20169;-86
2021/06/16 07:46:47;;;;;;;1999.90;999.90;;;23.70;99.90;;;;;;5083639;28;20173;-85
2021/06/16 07:49:13;;;;;;;1999.90;999.90;;;23.80;99.90;;;;;;5084618;28;20589;-85
2021/06/16 07:51:39;;;;;;;1999.90;999.90;;;23.70;99.90;;;;;;5065300;28;20251;-85
2021/06/16 07:54:10;;;;;;;1999.90;999.90;;;23.80;99.90;;;;;;5082570;28;20169;-84
2021/06/16 07:56:37;;;;;;;1999.90;999.90;;;24.00;99.90;;;;;;5083747;28;20176;-85
2021/06/16 07:59:03;;;;;;;1999.90;999.90;;;24.00;99.90;;;;;;5065751;28;20555;-85
2021/06/16 08:01:28;;;;;;;1999.90;999.90;;;23.80;99.90;;;;;;5084006;28;20204;-85
2021/06/16 08:03:54;;;;;;;1999.90;999.90;;;23.80;99.90;;;;;;5083450;28;20169;-85
2021/06/16 08:06:22;;;;;;;1999.90;999.90;;;23.90;99.90;;;;;;5066348;28;20241;-85
2021/06/16 08:08:48;;;;;;;1999.90;999.90;;;23.90;99.90;;;;;;5082640;28;20172;-85
2021/06/16 08:11:14;;;;;;;1999.90;999.90;;;24.10;99.90;;;;;;5081887;28;20219;-85
2021/06/16 08:13:40;;;;;;;1999.90;999.90;;;24.30;99.90;;;;;;5082951;28;20184;-85
2021/06/16 08:16:06;;;;;;;1999.90;999.90;;;24.30;99.90;;;;;;5083636;28;20165;-85
2021/06/16 08:18:31;;;;;;;1999.90;999.90;;;24.50;99.90;;;;;;5065016;28;20199;-85
2021/06/16 08:20:58;;;;;;;1999.90;999.90;;;24.50;99.90;;;;;;5083407;28;20173;-85
2021/06/16 08:23:23;;;;;;;1999.90;999.90;;;24.50;99.90;;;;;;5065469;28;20235;-85
2021/06/16 08:25:49;;;;;;;1999.90;999.90;;;24.50;99.90;;;;;;5065081;28;20169;-85
2021/06/16 08:28:15;;;;;;;1999.90;999.90;;;24.50;99.90;;;;;;5065679;28;20177;-85
2021/06/16 08:30:41;;;;;;;1999.90;999.90;;;24.50;99.90;;;;;;5083212;28;20177;-85
2021/06/16 08:33:06;;;;;;;1999.90;999.90;;;24.60;99.90;;;;;;5082512;28;20200;-84
2021/06/16 08:35:32;;;;;;;1999.90;999.90;;;24.80;99.90;;;;;;5064939;28;20192;-85
2021/06/16 08:37:57;;;;;;;1999.90;999.90;;;24.90;99.90;;;;;;5065413;28;20558;-85
2021/06/16 08:40:23;;;;;;;1999.90;999.90;;;25.00;99.90;;;;;;5064819;28;20662;-85
2021/06/16 08:42:50;;;;;;;1999.90;999.90;;;25.10;99.90;;;;;;5083337;28;20197;-86
2021/06/16 08:45:19;;;;;;;1999.90;999.90;;;25.10;99.90;;;;;;5065398;28;20165;-84
2021/06/16 08:47:46;;;;;;;1999.90;999.90;;;25.20;99.90;;;;;;5065148;28;20255;-84
2021/06/16 08:50:14;;;;;;;1999.90;999.90;;;25.40;99.90;;;;;;5082088;28;20196;-85
2021/06/16 08:52:40;;;;;;;1999.90;999.90;;;25.40;99.90;;;;;;5064352;28;20260;-85
2021/06/16 08:55:09;;;;;;;1999.90;999.90;;;25.50;99.90;;;;;;5082643;28;20192;-85
2021/06/16 08:57:35;;;;;;;1999.90;999.90;;;25.40;99.90;;;;;;5082647;28;20242;-85
2021/06/16 09:00:03;;;;;;;1999.90;999.90;;;25.50;99.90;;;;;;5064047;28;20193;-84
2021/06/16 09:02:29;;;;;;;1999.90;999.90;;;25.70;99.90;;;;;;5082472;28;20239;-85
2021/06/16 09:04:55;;;;;;;1999.90;999.90;;;25.80;99.90;;;;;;5076019;28;20177;-85
2021/06/16 09:07:24;;;;;;;1999.90;999.90;;;25.80;99.90;;;;;;5063410;28;20253;-85
2021/06/16 09:10:05;;;;;;;1999.90;999.90;;;25.70;99.90;;;;;;5081620;28;20177;-85
2021/06/16 09:12:33;;;;;;;1999.90;999.90;;;25.80;99.90;;;;;;5063119;28;20216;-85
2021/06/16 09:14:59;;;;;;;1999.90;999.90;;;26.00;99.90;;;;;;5082434;28;20180;-85
2021/06/16 09:17:26;;;;;;;1999.90;999.90;;;25.90;99.90;;;;;;5082258;28;20187;-85
2021/06/16 09:19:59;;;;;;;1999.90;999.90;;;26.00;99.90;;;;;;5064475;28;20173;-85
2021/06/16 09:22:31;;;;;;;1999.90;999.90;;;26.10;99.90;;;;;;5063016;28;20272;-85
2021/06/16 09:24:58;;;;;;;1999.90;999.90;;;26.20;99.90;;;;;;5070588;28;20237;-85
2021/06/16 09:27:43;;;;;;;1999.90;999.90;;;26.30;99.90;;;;;;5060035;28;20173;-85
2021/06/16 09:30:30;;;;;;;1999.90;999.90;;;26.40;99.90;;;;;;5082284;28;20188;-84
2021/06/16 09:33:11;;;;;;;1999.90;999.90;;;26.80;99.90;;;;;;5081781;28;20583;-85
2021/06/16 09:35:40;;;;;;;1999.90;999.90;;;26.90;99.90;;;;;;5063590;28;20173;-85
2021/06/16 09:38:13;;;;;;;1999.90;999.90;;;26.90;99.90;;;;;;5064979;28;20607;-85
2021/06/16 09:40:45;;;;;;;1999.90;999.90;;;26.90;99.90;;;;;;5081569;28;20695;-85
2021/06/16 09:43:12;;;;;;;1999.90;999.90;;;27.00;99.90;;;;;;5081795;28;20670;-84
2021/06/16 09:45:39;;;;;;;1999.90;999.90;;;27.20;99.90;;;;;;5081629;28;20166;-85
2021/06/16 09:48:23;;;;;;;1999.90;999.90;;;27.40;99.90;;;;;;5081386;28;20185;-85
2021/06/16 09:50:51;;;;;;;1999.90;999.90;;;27.60;99.90;;;;;;5063143;28;20469;-84
2021/06/16 09:53:17;;;;;;;1999.90;999.90;;;27.70;99.90;;;;;;5081475;28;20551;-85
2021/06/16 09:55:43;;;;;;;1999.90;999.90;;;27.70;99.90;;;;;;5082305;28;20178;-85
2021/06/16 09:58:17;;;;;;;1999.90;999.90;;;27.70;99.90;;;;;;5082404;28;20248;-85
2021/06/16 10:00:48;;;;;;;1999.90;999.90;;;27.70;99.90;;;;;;5083559;28;20201;-85
2021/06/16 10:03:21;;;;;;;1999.90;999.90;;;27.90;99.90;;;;;;5064612;28;20719;-85
2021/06/16 10:06:06;;;;;;;1999.90;999.90;;;28.00;99.90;;;;;;5082404;28;20173;-85
2021/06/16 10:08:37;;;;;;;1999.90;999.90;;;28.20;99.90;;;;;;5081308;28;20169;-85
2021/06/16 10:11:07;;;;;;;1999.90;999.90;;;28.30;99.90;;;;;;5063730;28;20173;-85
2021/06/16 10:13:33;;;;;;;1999.90;999.90;;;28.30;99.90;;;;;;5080775;28;20177;-85
2021/06/16 10:16:00;;;;;;;1999.90;999.90;;;28.30;99.90;;;;;;5081208;28;20180;-85
2021/06/16 10:18:28;;;;;;;1999.90;999.90;;;28.40;99.90;;;;;;5063598;28;20216;-85
2021/06/16 10:20:55;;;;;;;1999.90;999.90;;;28.50;99.80;;;;;;5042981;28;20182;-85
2021/06/16 10:23:21;;;;;;;1999.90;999.90;;;28.70;99.90;;;;;;5052126;28;20350;-82
2021/06/16 10:25:48;;;;;;;1999.90;999.90;;;28.70;99.90;;;;;;5081155;28;20169;-82
2021/06/16 10:28:18;;;;;;;1999.90;999.90;;;28.60;99.90;;;;;;5063534;28;20177;-83
2021/06/16 10:30:51;;;;;;;1999.90;999.90;;;28.80;99.90;;;;;;5079212;28;20176;-81
2021/06/16 10:33:27;;;;;;;1999.90;999.90;;;28.90;99.90;;;;;;5057797;28;20664;-80
2021/06/16 10:36:11;;;;;;;1999.90;999.90;;;29.10;99.90;;;;;;5077512;28;20176;-80
2021/06/16 10:38:39;;;;;;;1999.90;999.90;;;29.40;98.30;;;;;;5072629;28;20235;-80
2021/06/16 10:41:04;;;;;;;1999.90;999.90;;;29.50;99.90;;;;;;5076085;28;20180;-80
2021/06/16 10:43:35;;;;;;;1999.90;999.90;;;29.60;97.50;;;;;;5059567;28;20288;-79
2021/06/16 10:46:13;;;;;;;1999.90;999.90;;;29.60;96.80;;;;;;5059405;28;20631;-80
2021/06/16 10:48:49;;;;;;;1999.90;999.90;;;29.70;97.00;;;;;;5075380;28;20556;-80
2021/06/16 10:51:25;;;;;;;1999.90;999.90;;;29.70;96.20;;;;;;5057557;28;20263;-79
2021/06/16 10:54:12;;;;;;;1999.90;999.90;;;29.80;97.00;;;;;;5073481;28;20648;-80
2021/06/16 10:56:46;;;;;;;1999.90;999.90;;;29.90;96.10;;;;;;5075331;28;20236;-80
2021/06/16 10:59:12;;;;;;;1999.90;999.90;;;30.10;99.70;;;;;;5053495;28;20319;-80
2021/06/16 11:01:49;;;;;;;1999.90;999.90;;;30.00;97.90;;;;;;5074056;28;20252;-80
2021/06/16 11:04:31;;;;;;;1999.90;999.90;;;29.70;98.80;;;;;;5054427;28;20180;-80
2021/06/16 11:06:58;;;;;;;1999.90;999.90;;;29.70;99.00;;;;;;5070698;28;20173;-80
2021/06/16 11:09:48;;;;;;;1999.90;999.90;;;29.70;98.70;;;;;;5057134;28;20272;-80
2021/06/16 11:12:14;;;;;;;1999.90;999.90;;;29.90;99.90;;;;;;5075179;28;20236;-78
2021/06/16 11:14:40;;;;;;;1999.90;999.90;;;30.10;99.20;;;;;;5076781;28;20184;-79
2021/06/16 11:17:31;;;;;;;1999.90;999.90;;;30.20;98.10;;;;;;5057728;28;20177;-78
2021/06/16 11:20:00;;;;;;;1999.90;999.90;;;30.30;98.80;;;;;;5071569;28;20181;-79
2021/06/16 11:22:29;;;;;;;1999.90;999.90;;;30.60;99.30;;;;;;5068937;28;20196;-79
2021/06/16 11:25:02;;;;;;;1999.90;999.90;;;30.40;98.30;;;;;;5052817;28;20181;-79
2021/06/16 11:28:08;;;;;;;1999.90;999.90;;;30.10;99.20;;;;;;5072420;28;20184;-79
2021/06/16 11:30:55;;;;;;;1999.90;999.90;;;30.00;98.80;;;;;;5071209;28;20180;-79
2021/06/16 11:33:25;;;;;;;1999.90;999.90;;;30.20;99.50;;;;;;5072213;28;20204;-79
2021/06/16 11:35:51;;;;;;;1999.90;999.90;;;30.40;98.90;;;;;;5060265;28;20530;-79
2021/06/16 11:38:17;;;;;;;1999.90;999.90;;;30.20;98.20;;;;;;5053818;28;20197;-78
2021/06/16 11:40:52;;;;;;;1999.90;999.90;;;30.00;98.10;;;;;;5077198;28;20169;-79
2021/06/16 11:43:40;;;;;;;1999.90;999.90;;;30.10;99.60;;;;;;5076363;28;20203;-80
2021/06/16 11:46:33;;;;;;;1999.90;999.90;;;30.10;99.00;;;;;;5062620;28;20540;-79
2021/06/16 11:49:09;;;;;;;1999.90;999.90;;;30.10;97.60;;;;;;5079814;28;20188;-79
2021/06/16 11:51:39;;;;;;;1999.90;999.90;;;30.10;94.90;;;;;;5075710;28;20264;-80
2021/06/16 11:54:27;;;;;;;1999.90;999.90;;;30.00;95.90;;;;;;5079443;28;20173;-80
2021/06/16 11:57:07;;;;;;;1999.90;999.90;;;30.30;97.00;;;;;;5077548;28;20256;-79
2021/06/16 11:59:47;;;;;;;1999.90;999.90;;;30.10;95.10;;;;;;5078368;28;20161;-79
2021/06/16 12:02:20;;;;;;;1999.90;999.90;;;30.00;95.40;;;;;;5050687;28;20269;-79
2021/06/16 12:04:55;;;;;;;1999.90;999.90;;;30.00;96.40;;;;;;5079439;28;20250;-80
2021/06/16 12:07:23;;;;;;;1999.90;999.90;;;30.20;94.60;;;;;;5080085;28;20177;-79